Time;durP1;ratioP1;P1;durP2;ratioP2;P2;SDS_P1;SDS_P2;PMS_P1;PMS_P2;Temp;Humidity;BMP_temperature;BMP_pressure;BME280_temperature;BME280_humidity;BME280_pressure;Samples;Min_cycle;Max_cycle;Signal;HPM_P1;HPM_P2
2023/07/03 00:01:41;;;;;;;;;;;23.40;88.90;;;;;;5115432;28;19933;-39
2023/07/03 00:04:10;;;;;;;;;;;23.40;89.00;;;;;;5115131;28;20281;-39
2023/07/03 00:06:36;;;;;;;;;;;23.40;89.00;;;;;;5115012;28;19957;-39
2023/07/03 00:09:02;;;;;;;;;;;23.40;89.00;;;;;;5115405;28;19912;-39
2023/07/03 00:11:28;;;;;;;;;;;23.40;89.00;;;;;;5115333;28;20069;-39
2023/07/03 00:13:53;;;;;;;;;;;23.40;89.00;;;;;;5115292;28;19907;-39
2023/07/03 00:16:19;;;;;;;;;;;23.40;89.10;;;;;;5115039;28;19987;-39
2023/07/03 00:18:44;;;;;;;;;;;23.40;89.10;;;;;;5115222;28;19908;-39
2023/07/03 00:21:10;;;;;;;;;;;23.40;89.10;;;;;;5115145;28;19994;-39
2023/07/03 00:23:35;;;;;;;;;;;23.40;89.10;;;;;;5113880;28;19908;-39
2023/07/03 00:26:01;;;;;;;;;;;23.40;89.10;;;;;;5114875;28;19958;-39
2023/07/03 00:28:27;;;;;;;;;;;23.40;89.10;;;;;;5114930;28;19911;-39
2023/07/03 00:30:52;;;;;;;;;;;23.40;89.10;;;;;;5115205;28;19914;-39
2023/07/03 00:33:17;;;;;;;;;;;23.40;89.20;;;;;;5114611;28;19908;-40
2023/07/03 00:35:43;;;;;;;;;;;23.40;89.20;;;;;;5114888;28;19972;-39
2023/07/03 00:38:08;;;;;;;;;;;23.40;89.20;;;;;;5114886;28;20320;-39
2023/07/03 00:40:34;;;;;;;;;;;23.40;89.20;;;;;;5114515;28;19908;-39
2023/07/03 00:43:00;;;;;;;;;;;23.40;89.20;;;;;;5114793;28;19981;-39
2023/07/03 00:45:26;;;;;;;;;;;23.40;89.20;;;;;;5114086;28;20337;-39
2023/07/03 00:47:52;;;;;;;;;;;23.40;89.20;;;;;;5114329;28;20018;-39
2023/07/03 00:50:18;;;;;;;;;;;23.40;89.30;;;;;;5114675;28;20056;-40
2023/07/03 00:52:45;;;;;;;;;;;23.40;89.30;;;;;;5114461;28;19947;-39
2023/07/03 00:55:13;;;;;;;;;;;23.40;89.30;;;;;;5114379;28;19994;-40
2023/07/03 00:57:39;;;;;;;;;;;23.40;89.30;;;;;;5114604;28;20285;-39
2023/07/03 01:00:05;;;;;;;;;;;23.40;89.30;;;;;;5114270;28;20319;-39
2023/07/03 01:02:35;;;;;;;;;;;23.40;89.30;;;;;;5114490;28;20365;-39
2023/07/03 01:05:05;;;;;;;;;;;23.40;89.30;;;;;;5114567;28;19915;-39
2023/07/03 01:07:32;;;;;;;;;;;23.40;89.30;;;;;;5111335;28;19911;-39
2023/07/03 01:09:59;;;;;;;;;;;23.40;89.30;;;;;;5091995;28;19958;-39
2023/07/03 01:12:27;;;;;;;;;;;23.40;89.30;;;;;;5096444;28;19912;-39
2023/07/03 01:14:53;;;;;;;;;;;23.40;89.40;;;;;;5094003;28;20007;-39
2023/07/03 01:17:19;;;;;;;;;;;23.30;89.30;;;;;;5093709;28;20274;-40
2023/07/03 01:19:46;;;;;;;;;;;23.40;89.40;;;;;;5094050;28;20002;-39
2023/07/03 01:22:23;;;;;;;;;;;23.40;89.50;;;;;;5093663;28;19908;-39
2023/07/03 01:25:03;;;;;;;;;;;23.30;89.40;;;;;;5094748;28;19912;-42
2023/07/03 01:27:33;;;;;;;;;;;23.30;89.50;;;;;;5097253;28;19912;-39
2023/07/03 01:30:00;;;;;;;;;;;23.40;89.60;;;;;;5100528;28;20374;-39
2023/07/03 01:32:28;;;;;;;;;;;23.40;89.60;;;;;;5099223;28;19915;-39
2023/07/03 01:34:55;;;;;;;;;;;23.40;89.60;;;;;;5094040;28;19908;-39
2023/07/03 01:37:23;;;;;;;;;;;23.30;89.50;;;;;;5110367;28;19912;-39
2023/07/03 01:39:50;;;;;;;;;;;23.30;89.50;;;;;;5097899;28;19908;-40
2023/07/03 01:42:15;;;;;;;;;;;23.30;89.50;;;;;;5103361;28;19934;-39
2023/07/03 01:44:41;;;;;;;;;;;23.30;89.50;;;;;;5118164;28;19920;-40
2023/07/03 01:47:08;;;;;;;;;;;23.40;89.60;;;;;;5117735;28;20239;-39
2023/07/03 01:49:33;;;;;;;;;;;23.30;89.50;;;;;;5099954;28;19916;-39
2023/07/03 01:52:08;;;;;;;;;;;23.30;89.50;;;;;;5118146;28;20247;-39
2023/07/03 01:54:41;;;;;;;;;;;23.30;89.50;;;;;;5118085;28;19911;-39
2023/07/03 01:57:07;;;;;;;;;;;23.30;89.40;;;;;;5118141;28;19942;-39
2023/07/03 01:59:34;;;;;;;;;;;23.30;89.40;;;;;;5117492;28;19943;-39
2023/07/03 02:02:06;;;;;;;;;;;23.30;89.40;;;;;;5117728;28;19908;-39
2023/07/03 02:04:41;;;;;;;;;;;23.30;89.50;;;;;;5077585;28;19959;-39
2023/07/03 02:07:07;;;;;;;;;;;23.30;89.40;;;;;;5076780;28;20389;-39
2023/07/03 02:09:32;;;;;;;;;;;23.30;89.40;;;;;;5093674;28;20011;-38
2023/07/03 02:11:58;;;;;;;;;;;23.30;86.60;;;;;;5101287;28;19955;-39
2023/07/03 02:14:24;;;;;;;;;;;23.30;86.20;;;;;;5105785;28;20363;-39
2023/07/03 02:16:50;;;;;;;;;;;23.30;88.10;;;;;;5097888;28;19999;-40
2023/07/03 02:19:16;;;;;;;;;;;23.30;88.70;;;;;;5097234;28;19908;-39
2023/07/03 02:21:44;;;;;;;;;;;23.30;88.90;;;;;;5096601;28;20432;-40
2023/07/03 02:24:10;;;;;;;;;;;23.30;89.10;;;;;;5093469;28;20011;-45
2023/07/03 02:26:35;;;;;;;;;;;23.30;89.00;;;;;;5096585;28;20007;-39
2023/07/03 02:29:01;;;;;;;;;;;23.30;89.00;;;;;;5095497;28;19987;-40
2023/07/03 02:31:26;;;;;;;;;;;23.30;89.10;;;;;;5094692;28;19915;-40
2023/07/03 02:33:52;;;;;;;;;;;23.30;89.10;;;;;;5094891;28;19931;-39
2023/07/03 02:36:17;;;;;;;;;;;23.30;89.10;;;;;;5094580;28;20270;-41
2023/07/03 02:38:43;;;;;;;;;;;23.30;89.10;;;;;;5094781;28;19912;-40
2023/07/03 02:41:09;;;;;;;;;;;23.30;89.00;;;;;;5094713;28;20004;-40
2023/07/03 02:43:35;;;;;;;;;;;23.30;89.10;;;;;;5095040;28;19961;-40
2023/07/03 02:46:04;;;;;;;;;;;23.30;89.10;;;;;;5095466;28;20333;-39
2023/07/03 02:48:29;;;;;;;;;;;23.30;89.10;;;;;;5095872;28;20259;-39
2023/07/03 02:50:55;;;;;;;;;;;23.30;89.10;;;;;;5096249;28;19908;-39
2023/07/03 02:53:20;;;;;;;;;;;23.30;89.10;;;;;;5096488;28;19930;-42
2023/07/03 02:55:49;;;;;;;;;;;23.30;89.10;;;;;;5096342;28;20363;-39
2023/07/03 02:58:14;;;;;;;;;;;23.30;89.10;;;;;;5078320;28;20320;-39
2023/07/03 03:00:40;;;;;;;;;;;23.30;89.10;;;;;;5096427;28;19961;-39
2023/07/03 03:03:06;;;;;;;;;;;23.30;89.10;;;;;;5096126;28;19908;-39
2023/07/03 03:05:32;;;;;;;;;;;23.30;89.20;;;;;;5096326;28;20309;-39
2023/07/03 03:07:58;;;;;;;;;;;23.30;89.20;;;;;;5077900;28;19916;-39
2023/07/03 03:10:24;;;;;;;;;;;23.30;89.20;;;;;;5096281;28;19924;-39
2023/07/03 03:12:49;;;;;;;;;;;23.30;89.20;;;;;;5096486;28;19930;-39
2023/07/03 03:15:17;;;;;;;;;;;23.20;89.20;;;;;;5095858;28;20006;-39
2023/07/03 03:17:43;;;;;;;;;;;23.30;89.30;;;;;;5096060;28;19908;-39
2023/07/03 03:20:10;;;;;;;;;;;23.30;89.30;;;;;;5095651;28;19962;-39
2023/07/03 03:22:35;;;;;;;;;;;23.30;89.30;;;;;;5096006;28;20250;-39
2023/07/03 03:25:01;;;;;;;;;;;23.20;89.30;;;;;;5095928;28;19908;-39
2023/07/03 03:27:26;;;;;;;;;;;23.20;89.30;;;;;;5095919;28;19966;-39
2023/07/03 03:29:52;;;;;;;;;;;23.30;89.40;;;;;;5095781;28;20321;-40
2023/07/03 03:32:17;;;;;;;;;;;23.30;89.40;;;;;;5095663;28;19914;-39
2023/07/03 03:34:43;;;;;;;;;;;23.20;89.30;;;;;;5095709;28;19912;-39
2023/07/03 03:37:08;;;;;;;;;;;23.30;89.40;;;;;;5095464;28;19908;-39
2023/07/03 03:39:34;;;;;;;;;;;23.20;89.40;;;;;;5060812;28;19908;-39
2023/07/03 03:41:59;;;;;;;;;;;23.20;89.40;;;;;;5095342;28;19908;-39
2023/07/03 03:44:24;;;;;;;;;;;23.30;89.40;;;;;;5095415;28;20244;-39
2023/07/03 03:46:53;;;;;;;;;;;23.30;89.40;;;;;;5095433;28;20016;-39
2023/07/03 03:49:19;;;;;;;;;;;23.20;89.30;;;;;;5095434;28;19913;-39
2023/07/03 03:51:44;;;;;;;;;;;23.20;89.30;;;;;;5095133;28;20045;-39
2023/07/03 03:54:10;;;;;;;;;;;23.20;89.30;;;;;;5095297;28;19908;-39
2023/07/03 03:56:35;;;;;;;;;;;23.30;89.40;;;;;;5094970;28;19916;-39
2023/07/03 03:59:01;;;;;;;;;;;23.20;89.30;;;;;;5095143;28;20358;-39
2023/07/03 04:01:27;;;;;;;;;;;23.30;89.40;;;;;;5094918;28;19915;-39
2023/07/03 04:03:52;;;;;;;;;;;23.20;89.40;;;;;;5095149;28;19939;-41
2023/07/03 04:06:17;;;;;;;;;;;23.20;89.40;;;;;;5095092;28;19974;-39
2023/07/03 04:08:43;;;;;;;;;;;23.30;89.40;;;;;;5095027;28;19969;-39
2023/07/03 04:11:09;;;;;;;;;;;23.30;89.40;;;;;;5094758;28;19956;-39
2023/07/03 04:13:34;;;;;;;;;;;23.30;89.40;;;;;;5094832;28;20393;-39
2023/07/03 04:16:01;;;;;;;;;;;23.30;89.90;;;;;;5094506;28;19908;-39
2023/07/03 04:18:27;;;;;;;;;;;23.30;89.40;;;;;;5095109;28;20003;-39
2023/07/03 04:20:53;;;;;;;;;;;23.30;89.40;;;;;;5094779;28;20351;-41
2023/07/03 04:23:18;;;;;;;;;;;23.30;89.50;;;;;;5094826;28;19974;-39
2023/07/03 04:25:44;;;;;;;;;;;23.30;89.40;;;;;;5094429;28;19916;-39
2023/07/03 04:28:11;;;;;;;;;;;23.30;89.40;;;;;;5094616;28;20002;-39
2023/07/03 04:30:36;;;;;;;;;;;23.30;89.30;;;;;;5094644;28;19912;-39
2023/07/03 04:33:02;;;;;;;;;;;23.30;89.30;;;;;;5094228;28;20252;-39
2023/07/03 04:35:27;;;;;;;;;;;23.30;89.30;;;;;;5094491;28;19961;-39
2023/07/03 04:37:53;;;;;;;;;;;23.30;89.30;;;;;;5094275;28;19912;-41
2023/07/03 04:40:18;;;;;;;;;;;23.30;89.30;;;;;;5094882;28;19939;-39
2023/07/03 04:42:44;;;;;;;;;;;23.30;89.30;;;;;;5094081;28;19912;-38
2023/07/03 04:45:10;;;;;;;;;;;23.30;89.30;;;;;;5093809;28;19927;-38
2023/07/03 04:47:38;;;;;;;;;;;23.30;89.30;;;;;;5094318;28;19920;-39
2023/07/03 04:50:05;;;;;;;;;;;23.30;89.30;;;;;;5094309;28;19938;-39
2023/07/03 04:52:31;;;;;;;;;;;23.30;89.30;;;;;;5094120;28;19915;-38
2023/07/03 04:54:56;;;;;;;;;;;23.30;89.30;;;;;;5094250;28;19908;-39
2023/07/03 04:57:21;;;;;;;;;;;23.30;89.30;;;;;;5093870;28;19958;-39
2023/07/03 04:59:48;;;;;;;;;;;23.30;89.30;;;;;;5094002;28;19908;-39
2023/07/03 05:02:17;;;;;;;;;;;23.30;89.30;;;;;;5093784;28;19912;-39
2023/07/03 05:04:42;;;;;;;;;;;23.30;89.40;;;;;;5094038;28;20008;-39
2023/07/03 05:07:08;;;;;;;;;;;23.30;89.30;;;;;;5093562;28;19959;-39
2023/07/03 05:09:34;;;;;;;;;;;23.30;89.40;;;;;;5093135;28;20302;-38
2023/07/03 05:11:59;;;;;;;;;;;23.30;89.40;;;;;;5094071;28;19912;-39
2023/07/03 05:14:25;;;;;;;;;;;23.30;89.40;;;;;;5093412;28;19999;-39
2023/07/03 05:16:50;;;;;;;;;;;23.30;89.40;;;;;;5093942;28;19908;-39
2023/07/03 05:19:16;;;;;;;;;;;23.30;89.50;;;;;;5093618;28;19954;-38
2023/07/03 05:21:41;;;;;;;;;;;23.30;89.50;;;;;;5092594;28;19912;-39
2023/07/03 05:24:07;;;;;;;;;;;23.30;89.40;;;;;;5093970;28;19915;-39
2023/07/03 05:26:32;;;;;;;;;;;23.30;89.50;;;;;;5093809;28;19965;-39
2023/07/03 05:28:58;;;;;;;;;;;23.30;89.40;;;;;;5093612;28;19963;-39
2023/07/03 05:31:23;;;;;;;;;;;23.40;89.40;;;;;;5093515;28;19924;-39
2023/07/03 05:33:49;;;;;;;;;;;23.40;89.60;;;;;;5093482;28;20381;-38
2023/07/03 05:36:15;;;;;;;;;;;23.40;89.30;;;;;;5106288;28;19918;-39
2023/07/03 05:38:40;;;;;;;;;;;23.40;89.30;;;;;;5114082;28;19908;-39
2023/07/03 05:41:06;;;;;;;;;;;23.40;89.30;;;;;;5113082;28;19918;-39
2023/07/03 05:43:31;;;;;;;;;;;23.40;89.20;;;;;;5113115;28;19908;-39
2023/07/03 05:45:57;;;;;;;;;;;23.30;89.10;;;;;;5094943;28;20390;-39
2023/07/03 05:48:23;;;;;;;;;;;23.40;89.30;;;;;;5093234;28;19937;-39
2023/07/03 05:50:48;;;;;;;;;;;23.40;89.40;;;;;;5093219;28;19912;-39
2023/07/03 05:53:14;;;;;;;;;;;23.40;89.50;;;;;;5112182;28;19957;-38
2023/07/03 05:55:40;;;;;;;;;;;23.40;89.70;;;;;;5107840;28;19913;-39
2023/07/03 05:58:05;;;;;;;;;;;23.40;89.80;;;;;;5093400;28;19981;-39
2023/07/03 06:00:31;;;;;;;;;;;23.40;89.90;;;;;;5090233;28;19927;-39
2023/07/03 06:02:57;;;;;;;;;;;23.40;90.00;;;;;;5101919;28;19919;-39
2023/07/03 06:05:22;;;;;;;;;;;23.40;90.10;;;;;;5107032;28;19912;-40
2023/07/03 06:07:49;;;;;;;;;;;23.40;90.20;;;;;;5108516;28;20285;-39
2023/07/03 06:10:14;;;;;;;;;;;23.40;90.20;;;;;;5113630;28;19911;-40
2023/07/03 06:12:40;;;;;;;;;;;23.40;85.30;;;;;;5104876;28;19919;-40
2023/07/03 06:15:06;;;;;;;;;;;23.40;86.70;;;;;;5095685;28;19985;-39
2023/07/03 06:17:31;;;;;;;;;;;23.40;87.70;;;;;;5097715;28;19908;-39
2023/07/03 06:19:57;;;;;;;;;;;23.40;88.30;;;;;;5113142;28;20358;-39
2023/07/03 06:22:22;;;;;;;;;;;23.40;88.90;;;;;;5094358;28;20363;-39
2023/07/03 06:24:48;;;;;;;;;;;23.40;89.30;;;;;;5101871;28;19907;-38
2023/07/03 06:27:14;;;;;;;;;;;23.40;89.70;;;;;;5117219;28;20315;-39
2023/07/03 06:29:40;;;;;;;;;;;23.40;89.90;;;;;;5101361;28;19912;-39
2023/07/03 06:32:06;;;;;;;;;;;23.40;90.00;;;;;;5104404;28;19912;-38
2023/07/03 06:34:31;;;;;;;;;;;23.40;90.10;;;;;;5117522;28;19908;-40
2023/07/03 06:36:57;;;;;;;;;;;23.50;90.10;;;;;;5098657;28;20380;-38
2023/07/03 06:39:23;;;;;;;;;;;23.40;90.10;;;;;;5096207;28;19922;-38
2023/07/03 06:41:48;;;;;;;;;;;23.40;90.10;;;;;;5108749;28;19912;-38
2023/07/03 06:44:15;;;;;;;;;;;23.40;90.20;;;;;;5103351;28;20277;-39
2023/07/03 06:46:40;;;;;;;;;;;23.50;90.30;;;;;;5096375;28;20262;-39
2023/07/03 06:49:06;;;;;;;;;;;23.50;90.30;;;;;;5096170;28;19919;-38
2023/07/03 06:51:31;;;;;;;;;;;23.50;90.30;;;;;;5111143;28;19930;-39
2023/07/03 06:53:57;;;;;;;;;;;23.50;90.30;;;;;;5114690;28;19923;-40
2023/07/03 06:56:22;;;;;;;;;;;23.50;90.40;;;;;;5113612;28;19922;-39
2023/07/03 06:58:48;;;;;;;;;;;23.50;90.40;;;;;;5116656;28;19929;-38
2023/07/03 07:01:14;;;;;;;;;;;23.50;90.40;;;;;;5109059;28;19915;-39
2023/07/03 07:03:40;;;;;;;;;;;23.50;90.40;;;;;;5116091;28;20274;-39
2023/07/03 07:06:07;;;;;;;;;;;23.50;90.40;;;;;;5116346;28;19908;-39
2023/07/03 07:08:33;;;;;;;;;;;23.50;90.40;;;;;;5116422;28;20362;-39
2023/07/03 07:10:58;;;;;;;;;;;23.50;90.40;;;;;;5100200;28;19977;-40
2023/07/03 07:13:24;;;;;;;;;;;23.50;90.40;;;;;;5094353;28;20371;-39
2023/07/03 07:15:49;;;;;;;;;;;23.50;90.40;;;;;;5093968;28;20080;-39
2023/07/03 07:18:15;;;;;;;;;;;23.60;90.40;;;;;;5094417;28;19908;-38
2023/07/03 07:20:41;;;;;;;;;;;23.60;90.50;;;;;;5099232;28;20274;-39
2023/07/03 07:23:07;;;;;;;;;;;23.60;90.40;;;;;;5095762;28;19963;-39
2023/07/03 07:25:33;;;;;;;;;;;23.60;90.40;;;;;;5109169;28;19908;-40
2023/07/03 07:27:58;;;;;;;;;;;23.60;90.40;;;;;;5096998;28;19963;-40
2023/07/03 07:30:24;;;;;;;;;;;23.60;90.40;;;;;;5102620;28;19922;-40
2023/07/03 07:32:49;;;;;;;;;;;23.60;90.40;;;;;;5076925;28;19908;-39
2023/07/03 07:35:15;;;;;;;;;;;23.60;90.40;;;;;;5093537;28;19912;-39
2023/07/03 07:37:41;;;;;;;;;;;23.60;90.40;;;;;;5095112;28;20413;-39
2023/07/03 07:40:07;;;;;;;;;;;23.60;90.40;;;;;;5095498;28;19911;-40
2023/07/03 07:42:32;;;;;;;;;;;23.60;90.30;;;;;;5095027;28;20362;-40
2023/07/03 07:44:58;;;;;;;;;;;23.60;90.30;;;;;;5108187;28;20014;-39
2023/07/03 07:47:23;;;;;;;;;;;23.60;90.30;;;;;;5114563;28;19961;-42
2023/07/03 07:49:49;;;;;;;;;;;23.60;90.40;;;;;;5092471;28;19916;-39
2023/07/03 07:52:15;;;;;;;;;;;23.60;90.40;;;;;;5094109;28;19919;-38
2023/07/03 07:54:41;;;;;;;;;;;23.60;90.30;;;;;;5102127;28;19912;-38
2023/07/03 07:57:07;;;;;;;;;;;23.60;90.30;;;;;;5096525;28;20414;-38
2023/07/03 07:59:35;;;;;;;;;;;23.60;90.20;;;;;;5095106;28;19908;-39
2023/07/03 08:02:01;;;;;;;;;;;23.60;90.20;;;;;;5094688;28;19914;-38
2023/07/03 08:04:26;;;;;;;;;;;23.60;90.30;;;;;;5115608;28;19908;-39
2023/07/03 08:06:52;;;;;;;;;;;23.60;90.30;;;;;;5108843;28;19922;-38
2023/07/03 08:09:17;;;;;;;;;;;23.60;90.30;;;;;;5094904;28;19958;-39
2023/07/03 08:11:44;;;;;;;;;;;23.70;90.30;;;;;;5093037;28;19969;-46
2023/07/03 08:14:10;;;;;;;;;;;23.70;90.30;;;;;;5101628;28;19912;-38
2023/07/03 08:16:35;;;;;;;;;;;23.70;90.30;;;;;;5092995;28;19919;-39
2023/07/03 08:19:01;;;;;;;;;;;23.70;90.30;;;;;;5094431;28;19958;-39
2023/07/03 08:21:26;;;;;;;;;;;23.70;90.30;;;;;;5094404;28;19908;-39
2023/07/03 08:23:52;;;;;;;;;;;23.70;90.50;;;;;;5094381;28;19911;-38
2023/07/03 08:26:19;;;;;;;;;;;23.70;90.30;;;;;;5108700;28;20476;-39
2023/07/03 08:28:44;;;;;;;;;;;23.70;90.30;;;;;;5113352;28;19919;-38
2023/07/03 08:31:10;;;;;;;;;;;23.70;90.30;;;;;;5111756;28;19908;-39
2023/07/03 08:33:35;;;;;;;;;;;23.70;90.20;;;;;;5094014;28;19957;-40
2023/07/03 08:36:00;;;;;;;;;;;23.70;90.20;;;;;;5094275;28;20248;-39
2023/07/03 08:38:26;;;;;;;;;;;23.70;90.20;;;;;;5088872;28;19919;-47
2023/07/03 08:40:58;;;;;;;;;;;23.70;90.20;;;;;;5093917;28;19930;-39
2023/07/03 08:43:27;;;;;;;;;;;23.70;90.20;;;;;;5094456;28;19923;-39
2023/07/03 08:45:53;;;;;;;;;;;23.70;90.30;;;;;;5093853;28;19921;-39
2023/07/03 08:48:22;;;;;;;;;;;23.70;90.30;;;;;;5101077;28;20026;-40
2023/07/03 08:50:50;;;;;;;;;;;23.70;90.30;;;;;;5114508;28;19922;-39
2023/07/03 08:53:18;;;;;;;;;;;23.70;90.20;;;;;;5110562;28;19919;-38
2023/07/03 08:55:48;;;;;;;;;;;23.70;90.20;;;;;;5114246;28;20267;-39
2023/07/03 08:58:13;;;;;;;;;;;23.70;90.20;;;;;;5114239;28;20014;-39
2023/07/03 09:00:47;;;;;;;;;;;23.70;90.20;;;;;;5099720;28;19971;-39
2023/07/03 09:03:22;;;;;;;;;;;23.70;90.20;;;;;;5098259;28;20302;-40
2023/07/03 09:06:01;;;;;;;;;;;23.70;90.20;;;;;;5109378;28;19920;-40
2023/07/03 09:08:30;;;;;;;;;;;23.70;90.20;;;;;;5097117;28;20018;-40
2023/07/03 09:10:56;;;;;;;;;;;23.70;90.20;;;;;;5104445;28;20331;-39
2023/07/03 09:13:30;;;;;;;;;;;23.80;90.20;;;;;;5093608;28;19909;-39
2023/07/03 09:15:58;;;;;;;;;;;23.80;90.20;;;;;;5092470;28;19918;-39
2023/07/03 09:18:27;;;;;;;;;;;23.70;90.20;;;;;;5093758;28;20007;-38
2023/07/03 09:20:52;;;;;;;;;;;23.70;90.20;;;;;;5093989;28;19908;-38
2023/07/03 09:23:20;;;;;;;;;;;23.70;90.20;;;;;;5110766;28;19964;-38
2023/07/03 09:26:00;;;;;;;;;;;23.80;90.20;;;;;;5114175;28;19915;-40
2023/07/03 09:28:26;;;;;;;;;;;23.70;90.20;;;;;;5108631;28;19915;-39
2023/07/03 09:30:53;;;;;;;;;;;23.80;90.20;;;;;;5109572;28;20010;-39
2023/07/03 09:33:19;;;;;;;;;;;23.80;90.20;;;;;;5097070;28;19962;-39
2023/07/03 09:35:45;;;;;;;;;;;23.80;90.20;;;;;;5098938;28;19937;-40
2023/07/03 09:38:14;;;;;;;;;;;23.80;90.20;;;;;;5093544;28;20002;-40
2023/07/03 09:40:41;;;;;;;;;;;23.80;90.10;;;;;;5093003;28;19994;-41
2023/07/03 09:43:14;;;;;;;;;;;23.80;90.10;;;;;;5101437;28;19919;-48
2023/07/03 09:45:39;;;;;;;;;;;23.70;90.10;;;;;;5091998;28;20407;-40
2023/07/03 09:48:10;;;;;;;;;;;23.80;90.10;;;;;;5075639;28;19954;-41
2023/07/03 09:50:38;;;;;;;;;;;23.80;90.10;;;;;;5091727;28;19916;-40
2023/07/03 09:53:03;;;;;;;;;;;23.80;90.10;;;;;;5087026;28;19995;-40
2023/07/03 09:55:29;;;;;;;;;;;23.80;90.10;;;;;;5093705;28;19959;-40
2023/07/03 09:57:55;;;;;;;;;;;23.80;90.10;;;;;;5100966;28;19998;-39
2023/07/03 10:00:22;;;;;;;;;;;23.80;90.10;;;;;;5117701;28;19914;-39
2023/07/03 10:02:55;;;;;;;;;;;23.80;90.10;;;;;;5108835;28;20003;-39
2023/07/03 10:05:29;;;;;;;;;;;23.80;90.10;;;;;;5081172;28;20279;-38
2023/07/03 10:07:55;;;;;;;;;;;23.80;90.10;;;;;;5105602;28;19926;-39
2023/07/03 10:10:22;;;;;;;;;;;23.80;90.10;;;;;;5103036;28;19919;-39
2023/07/03 10:13:14;;;;;;;;;;;23.80;90.10;;;;;;5100355;28;19958;-39
2023/07/03 10:15:40;;;;;;;;;;;23.80;90.10;;;;;;5091393;28;19912;-40
2023/07/03 10:18:06;;;;;;;;;;;23.80;90.10;;;;;;5100053;28;19916;-39
2023/07/03 10:20:36;;;;;;;;;;;23.80;90.10;;;;;;5096732;28;19914;-40
2023/07/03 10:23:03;;;;;;;;;;;23.80;90.10;;;;;;5097059;28;19913;-39
2023/07/03 10:25:34;;;;;;;;;;;23.80;90.10;;;;;;5110097;28;20380;-39
2023/07/03 10:28:02;;;;;;;;;;;23.80;90.00;;;;;;5111682;28;19916;-40
2023/07/03 10:30:30;;;;;;;;;;;23.80;90.10;;;;;;5095065;28;20389;-39
2023/07/03 10:32:58;;;;;;;;;;;23.80;90.10;;;;;;5112620;28;19974;-39
2023/07/03 10:35:27;;;;;;;;;;;23.80;90.10;;;;;;5094081;28;20002;-40
2023/07/03 10:37:59;;;;;;;;;;;23.80;90.00;;;;;;5096294;28;19905;-39
2023/07/03 10:40:34;;;;;;;;;;;23.80;90.00;;;;;;5091104;28;19919;-39
2023/07/03 10:43:01;;;;;;;;;;;23.80;90.00;;;;;;5076891;28;19982;-38
2023/07/03 10:45:29;;;;;;;;;;;23.80;90.00;;;;;;5096808;28;19928;-39
2023/07/03 10:47:57;;;;;;;;;;;23.80;90.00;;;;;;5097281;28;20400;-38
2023/07/03 10:50:42;;;;;;;;;;;23.80;90.00;;;;;;5098878;28;19920;-39
2023/07/03 10:53:30;;;;;;;;;;;23.70;90.00;;;;;;5113738;28;19919;-39
2023/07/03 10:56:01;;;;;;;;;;;23.70;90.00;;;;;;5111315;28;20278;-39
2023/07/03 10:58:37;;;;;;;;;;;23.80;90.00;;;;;;5096066;28;19968;-39
2023/07/03 11:01:05;;;;;;;;;;;23.80;90.00;;;;;;5078219;28;19908;-40
2023/07/03 11:03:37;;;;;;;;;;;23.70;89.90;;;;;;5108783;28;19912;-38
2023/07/03 11:06:08;;;;;;;;;;;23.70;89.90;;;;;;5099804;28;19919;-43
2023/07/03 11:08:36;;;;;;;;;;;23.80;89.90;;;;;;5093862;28;20328;-39
2023/07/03 11:11:08;;;;;;;;;;;23.70;89.90;;;;;;5096421;28;19919;-39
2023/07/03 11:13:49;;;;;;;;;;;23.70;89.70;;;;;;5094783;28;20013;-40
2023/07/03 11:16:14;;;;;;;;;;;23.80;89.50;;;;;;5108686;28;19959;-39
2023/07/03 11:18:51;;;;;;;;;;;23.80;89.60;;;;;;5107460;28;19981;-40
2023/07/03 11:21:22;;;;;;;;;;;23.80;89.70;;;;;;5095796;28;19908;-39
2023/07/03 11:24:00;;;;;;;;;;;23.80;89.70;;;;;;5094228;28;19947;-39
2023/07/03 11:26:32;;;;;;;;;;;23.70;89.60;;;;;;5084693;28;20285;-38
2023/07/03 11:28:57;;;;;;;;;;;23.70;89.60;;;;;;5087830;28;20297;-39
2023/07/03 11:31:24;;;;;;;;;;;23.80;89.70;;;;;;5102403;28;19920;-39
2023/07/03 11:33:51;;;;;;;;;;;23.80;89.60;;;;;;5093954;28;20362;-39
2023/07/03 11:36:35;;;;;;;;;;;23.80;89.70;;;;;;5100122;28;20251;-39
2023/07/03 11:39:10;;;;;;;;;;;23.80;89.70;;;;;;5096245;28;19912;-39
2023/07/03 11:41:48;;;;;;;;;;;23.80;89.70;;;;;;5090020;28;19912;-39
2023/07/03 11:44:32;;;;;;;;;;;23.80;89.70;;;;;;5081101;28;20405;-40
2023/07/03 11:46:58;;;;;;;;;;;23.80;89.70;;;;;;5095426;28;19916;-40
2023/07/03 11:49:31;;;;;;;;;;;23.80;89.70;;;;;;5094959;28;20003;-40
2023/07/03 11:52:00;;;;;;;;;;;23.80;90.00;;;;;;5091989;28;19916;-40
2023/07/03 11:54:27;;;;;;;;;;;23.80;89.80;;;;;;5094824;28;19990;-41
2023/07/03 11:56:54;;;;;;;;;;;23.80;89.80;;;;;;5094573;28;19978;-41
2023/07/03 11:59:23;;;;;;;;;;;23.80;89.80;;;;;;5110204;28;20007;-40
2023/07/03 12:01:49;;;;;;;;;;;23.80;89.80;;;;;;5113085;28;19912;-39
2023/07/03 12:04:34;;;;;;;;;;;23.80;89.80;;;;;;5110118;28;20370;-40
2023/07/03 12:07:00;;;;;;;;;;;23.80;89.80;;;;;;5103669;28;20002;-40
2023/07/03 12:09:31;;;;;;;;;;;23.80;89.80;;;;;;5075763;28;20069;-47
2023/07/03 12:12:00;;;;;;;;;;;23.80;89.90;;;;;;5092293;28;19915;-39
2023/07/03 12:14:51;;;;;;;;;;;23.80;89.90;;;;;;5094760;28;19919;-38
2023/07/03 12:17:32;;;;;;;;;;;23.80;89.90;;;;;;5093449;28;19918;-39
2023/07/03 12:20:06;;;;;;;;;;;23.80;89.90;;;;;;5092893;28;19962;-40
2023/07/03 12:22:35;;;;;;;;;;;23.80;89.90;;;;;;5111967;28;20438;-39
2023/07/03 12:25:11;;;;;;;;;;;23.80;89.90;;;;;;5115039;28;20366;-40
2023/07/03 12:27:38;;;;;;;;;;;23.80;89.90;;;;;;5094033;28;19922;-40
2023/07/03 12:30:04;;;;;;;;;;;23.80;89.90;;;;;;5114444;28;19911;-47
2023/07/03 12:32:31;;;;;;;;;;;23.80;89.90;;;;;;5109310;28;20341;-39
2023/07/03 12:35:16;;;;;;;;;;;23.80;89.90;;;;;;5088740;28;19908;-40
2023/07/03 12:38:04;;;;;;;;;;;23.80;89.90;;;;;;5094552;28;19969;-40
2023/07/03 12:40:30;;;;;;;;;;;23.90;89.90;;;;;;5093468;28;19912;-43
2023/07/03 12:42:56;;;;;;;;;;;23.80;90.00;;;;;;5114628;28;19908;-43
2023/07/03 12:45:23;;;;;;;;;;;23.80;88.40;;;;;;5097154;28;20002;-64
2023/07/03 12:48:01;;;;;;;;;;;23.70;86.90;;;;;;5077700;28;20482;-46
2023/07/03 12:50:26;;;;;;;;;;;23.70;85.40;;;;;;5094054;28;20279;-43
2023/07/03 12:52:55;;;;;;;;;;;23.60;84.90;;;;;;5093896;28;19908;-48
2023/07/03 12:55:21;;;;;;;;;;;23.60;85.40;;;;;;5094540;28;19908;-45
2023/07/03 12:57:48;;;;;;;;;;;23.60;85.80;;;;;;5100586;28;19907;-46
2023/07/03 13:00:16;;;;;;;;;;;23.60;86.00;;;;;;5084431;28;19939;-44
2023/07/03 13:02:42;;;;;;;;;;;23.50;84.60;;;;;;5094392;28;19915;-44
2023/07/03 13:05:09;;;;;;;;;;;23.50;86.20;;;;;;5114192;28;20342;-45
2023/07/03 13:07:35;;;;;;;;;;;23.50;87.70;;;;;;5077154;28;19960;-43
2023/07/03 13:10:07;;;;;;;;;;;23.50;87.80;;;;;;5091991;28;20394;-45
2023/07/03 13:12:34;;;;;;;;;;;23.50;88.10;;;;;;5074948;28;20376;-46
2023/07/03 13:15:02;;;;;;;;;;;23.50;88.40;;;;;;5093002;28;19912;-46
2023/07/03 13:17:29;;;;;;;;;;;23.50;88.50;;;;;;5090309;28;20287;-44
2023/07/03 13:20:12;;;;;;;;;;;23.50;88.50;;;;;;5093820;28;19908;-46
2023/07/03 13:22:43;;;;;;;;;;;23.50;88.50;;;;;;5087563;28;19915;-47
2023/07/03 13:25:29;;;;;;;;;;;23.50;88.20;;;;;;5092675;28;20247;-45
2023/07/03 13:27:55;;;;;;;;;;;23.50;88.50;;;;;;5072328;28;20358;-46
2023/07/03 13:30:28;;;;;;;;;;;23.50;88.80;;;;;;5099211;28;19940;-42
2023/07/03 13:32:55;;;;;;;;;;;23.50;88.80;;;;;;5097581;28;19916;-43
2023/07/03 13:35:31;;;;;;;;;;;23.50;88.90;;;;;;5105175;28;19908;-43
2023/07/03 13:38:09;;;;;;;;;;;23.50;89.00;;;;;;5097441;28;19959;-46
2023/07/03 13:40:34;;;;;;;;;;;23.50;89.00;;;;;;5110457;28;20354;-44
2023/07/03 13:43:01;;;;;;;;;;;23.50;89.10;;;;;;5102593;28;19908;-46
2023/07/03 13:45:27;;;;;;;;;;;23.50;89.20;;;;;;5098657;28;20450;-43
2023/07/03 13:47:52;;;;;;;;;;;23.50;89.30;;;;;;5099698;28;20072;-45
2023/07/03 13:50:18;;;;;;;;;;;23.50;89.30;;;;;;5117939;28;19915;-46
2023/07/03 13:52:43;;;;;;;;;;;23.50;89.40;;;;;;5117961;28;19954;-46
2023/07/03 13:55:09;;;;;;;;;;;23.40;89.40;;;;;;5102618;28;20385;-43
2023/07/03 13:57:34;;;;;;;;;;;23.40;89.50;;;;;;5098419;28;20026;-46
2023/07/03 14:00:00;;;;;;;;;;;23.50;89.60;;;;;;5097916;28;20320;-46
2023/07/03 14:02:25;;;;;;;;;;;23.50;89.60;;;;;;5099870;28;19916;-44
2023/07/03 14:04:51;;;;;;;;;;;23.40;89.60;;;;;;5108820;28;19912;-57
2023/07/03 14:07:16;;;;;;;;;;;23.50;89.60;;;;;;5103717;28;19972;-46
2023/07/03 14:09:42;;;;;;;;;;;23.50;89.80;;;;;;5106978;28;20290;-48
2023/07/03 14:12:07;;;;;;;;;;;23.50;89.80;;;;;;5107165;28;20040;-45
2023/07/03 14:14:33;;;;;;;;;;;23.50;89.80;;;;;;5110334;28;20378;-44
2023/07/03 14:16:58;;;;;;;;;;;23.50;89.80;;;;;;5111414;28;19908;-44
2023/07/03 14:19:24;;;;;;;;;;;23.40;89.80;;;;;;5117450;28;19915;-45